WetterOnline ( http://www.wetteronline.de )

Wetter aktuell Neustadt an der Weinstraße

Aktuelles Wetter: Weinbiet/Pfalz (557m)

6-stündlich | Neueste Meldungen
Ortszeit Temperatur Wetter
Fr, 22.02. 1:00 7.3° C bewölkt
Do, 21.02. 19:00 9.2° C bedeckt
Do, 21.02. 13:00 10.0° C bewölkt
Do, 21.02. 7:00 4.2° C wolkig
Do, 21.02. 1:00 4.9° C leicht bewölkt
Mi, 20.02. 19:00 6.2° C bedeckt
Mi, 20.02. 13:00 8.0° C wolkig
Mi, 20.02. 7:00 2.3° C wolkig
Ortszeit Temperatur Wetter
Fr, 22.02. 1:30 6.7° C wolkig
Fr, 22.02. 1:20 6.7° C wolkig
Fr, 22.02. 1:10 7.0° C bewölkt
Fr, 22.02. 1:00 7.3° C bewölkt
Fr, 22.02. 0:40 7.4° C bedeckt
Fr, 22.02. 0:30 7.8° C bedeckt
Fr, 22.02. 0:00 7.8° C bedeckt
Do, 21.02. 23:30 7.8° C bedeckt
Do, 21.02. 23:00 7.8° C bewölkt
Do, 21.02. 22:30 7.8° C leicht bewölkt
Ortszeit Relative Feuchte Sichtweite
Fr, 22.02. 1:00 81% 10 km
Do, 21.02. 19:00 69% 10 km
Do, 21.02. 13:00 67% 10 km
Do, 21.02. 7:00 95% 10 km
Do, 21.02. 1:00 85% 10 km
Mi, 20.02. 19:00 73% 10 km
Mi, 20.02. 13:00 59% 10 km
Mi, 20.02. 7:00 96% 10 km
Ortszeit Relative Feuchte Sichtweite
Fr, 22.02. 1:30 84% 10 km
Fr, 22.02. 1:20 84% -
Fr, 22.02. 1:10 83% -
Fr, 22.02. 1:00 81% 10 km
Fr, 22.02. 0:40 81% -
Fr, 22.02. 0:30 79% 10 km
Fr, 22.02. 0:00 79% 10 km
Do, 21.02. 23:30 79% 10 km
Do, 21.02. 23:00 79% 10 km
Do, 21.02. 22:30 77% 10 km
Ortszeit Niederschlagsmenge Niederschlagsart
Fr, 22.02. 1:00 0.1 l/m2 in 6 Std. Regen
Do, 21.02. 19:00 0.0 l/m2 in 12 Std. -
Do, 21.02. 13:00 0.0 l/m2 in 6 Std. -
Do, 21.02. 7:00 0.0 l/m2 in 12 Std. -
Do, 21.02. 1:00 0.0 l/m2 in 6 Std. -
Mi, 20.02. 19:00 0.0 l/m2 in 12 Std. -
Mi, 20.02. 13:00 0.0 l/m2 in 6 Std. -
Mi, 20.02. 7:00 0.0 l/m2 in 12 Std. -
Ortszeit Niederschlagsmenge Niederschlagsart
Fr, 22.02. 1:30 0.0 l/m2 in 1 Std. -
Fr, 22.02. 1:20 keine Meldung -
Fr, 22.02. 1:10 keine Meldung -
Fr, 22.02. 1:00 0.0 l/m2 in 1 Std. Regen
Fr, 22.02. 0:40 keine Meldung -
Fr, 22.02. 0:30 0.0 l/m2 in 1 Std. -
Fr, 22.02. 0:00 0.0 l/m2 in 1 Std. -
Do, 21.02. 23:30 0.0 l/m2 in 1 Std. -
Do, 21.02. 23:00 0.0 l/m2 in 1 Std. -
Do, 21.02. 22:30 0.0 l/m2 in 1 Std. -
Ortszeit Stärke Spitze Richtung
km/h Bft. km/h Grad Sektor
Fr, 22.02. 1:00 25 4 47 280° W
Do, 21.02. 19:00 22 4 36 280° W
Do, 21.02. 13:00 7 2 22 270° W
Do, 21.02. 7:00 22 4 29 260° W
Do, 21.02. 1:00 28 4 33 260° W
Mi, 20.02. 19:00 17 3 30 260° W
Mi, 20.02. 13:00 9 2 24 220° SW
Mi, 20.02. 7:00 15 3 31 260° W
Ortszeit Stärke Spitze Richtung
km/h Bft. km/h Grad Sektor
Fr, 22.02. 1:30 26 4 33 270° W
Fr, 22.02. 1:20 26 4 - 270° W
Fr, 22.02. 1:10 29 5 - 270° W
Fr, 22.02. 1:00 25 4 36 280° W
Fr, 22.02. 0:40 28 4 - 280° W
Fr, 22.02. 0:30 25 4 32 280° W
Fr, 22.02. 0:00 28 4 46 280° W
Do, 21.02. 23:30 31 5 46 280° W
Do, 21.02. 23:00 33 5 41 280° W
Do, 21.02. 22:30 32 5 43 280° W
Ortszeit Untergrenze Bedeckung Gattung
total tief tief mittel hoch
Fr, 22.02. 1:00 900 m 7/8 7/8 - - -
Do, 21.02. 19:00 1800 m 8/8 8/8 - - -
Do, 21.02. 13:00 1440 m 8/8 7/8 - - -
Do, 21.02. 7:00 1500 m 7/8 5/8 - - -
Do, 21.02. 1:00 2400 m 2/8 1/8 - - -
Mi, 20.02. 19:00 2700 m 8/8 8/8 - - -
Mi, 20.02. 13:00 3300 m 8/8 8/8 - - -
Mi, 20.02. 7:00 5400 m 8/8 2/8 - - -
Ortszeit Bedeckungsgrad in Achtel und Wolkenuntergrenze
Fr, 22.02. 1:30 2(660m) 3(1500m) 6(6000m)
Fr, 22.02. 1:20 2(660m) 3(1500m) 6(6000m)
Fr, 22.02. 1:10 2(690m) 6(1500m) 7(6000m)
Fr, 22.02. 1:00 1(900m) 4(1080m) 7(1500m)
Fr, 22.02. 0:40 1(900m) 6(1080m) 8(1500m)
Fr, 22.02. 0:30 5(1080m) 8(1500m) 8(1500m)
Fr, 22.02. 0:00 1(810m) 8(1800m)
Do, 21.02. 23:30 4(990m) 8(1800m) 8(7500m)
Do, 21.02. 23:00 1(1320m) 7(1800m) 8(1800m)
Do, 21.02. 22:30 2(870m) 3(1500m) 4(1800m)
Ortszeit Luftdruck NN (hPa) Tendenz (hPa in 3 Std.)
Fr, 22.02. 1:00 1031 + 0,8
Do, 21.02. 19:00 1029 + 0,8
Do, 21.02. 13:00 1028 + 0,3
Do, 21.02. 7:00 1028 + 0,1
Do, 21.02. 1:00 1027 + 0,4
Mi, 20.02. 19:00 1026 + 0,3
Mi, 20.02. 13:00 1025 + 0,7
Mi, 20.02. 7:00 1024 + 0,4
Ortszeit Luftdruck NN (hPa) Tendenz (hPa in 3 Std.)
Fr, 22.02. 1:30 1031 + 0,5
Fr, 22.02. 1:20 1031 keine Meldung
Fr, 22.02. 1:10 1031 keine Meldung
Fr, 22.02. 1:00 1031 + 0,8
Fr, 22.02. 0:40 1031 keine Meldung
Fr, 22.02. 0:30 1031 + 1,1
Fr, 22.02. 0:00 1031 + 1,2
Do, 21.02. 23:30 1031 + 1,0
Do, 21.02. 23:00 1030 + 0,7
Do, 21.02. 22:30 1030 + 0,7
Ortszeit Schneehöhe (cm)
Fr, 22.02. 1:00 0
Do, 21.02. 19:00 0
Do, 21.02. 13:00 0
Do, 21.02. 7:00 0
Do, 21.02. 1:00 0
Mi, 20.02. 19:00 0
Mi, 20.02. 13:00 0
Mi, 20.02. 7:00 0
Ortszeit Schneehöhe (cm)
Fr, 22.02. 1:30 0
Fr, 22.02. 1:20 0
Fr, 22.02. 1:10 0
Fr, 22.02. 1:00 0
Fr, 22.02. 0:40 0
Fr, 22.02. 0:30 0
Fr, 22.02. 0:00 0
Do, 21.02. 23:30 0
Do, 21.02. 23:00 0
Do, 21.02. 22:30 0
Link zu dieser Seite / Seite empfehlen

Das Wetter in ...